North Conway, New Hampshire
Current Conditions -  °F | °C
As of 10:54 AM on Thursday 30 Oct 2014 (Local Time) from KIZG Reporting Station
Overcast Overcast  
Wind Chill: 11°   Ceiling: 8500
Heat Index: 11°   Visibility: 10mi
Dew Point:   Wind: 5mph
Humidity: 63%   Direction: NA
Pressure: 29.9"   Gusts: NA
Location:  44.05°N, 71.13°W
Report Text: KIZG 301454Z AUTO VRB04KT 10SM OVC085 11/04 A2990 RMK AO2 SLP128 T01060039 50004
Loading
Personal Weather Stations






























Interactive Weather Map New forecast layout! Learn more

10-Day Weather Forecast

Advertisements
Track Severe Weather on mobile